METAR AND TAF INFORMATION
METAR FOR EDVE
ADDS - METARS form results

(1300 UTC 20 August 2018)
Data provider http://aviationweather.gov/adds/metars/
 
METAR text: EDVE 201250Z 29008KT 250V320 9999 FEW030 OVC039 22/15 Q1018
Conditions at: EDVE (BRAUNSCHWEIG , DE) observed 1250 UTC 20 August 2018
Temperature: 22.0°C (72°F)
Dewpoint: 15.0°C (59°F) [RH = 65%]
Pressure (altimeter): 30.06 inches Hg (1018.0 mb)
Winds: from the WNW (290 degrees) at 9 MPH (8 knots; 4.2 m/s)
Visibility: 6 or more miles (10+ km)
Ceiling: 3900 feet AGL
Clouds: few clouds at 3000 feet AGL
overcast cloud deck at 3900 feet AGL
Weather: no significant weather observed at this time

METAR text: EDVE 201220Z 28010KT 9999 FEW029 OVC042 22/15 Q1018
Conditions at: EDVE (BRAUNSCHWEIG , DE) observed 1220 UTC 20 August 2018
Temperature: 22.0°C (72°F)
Dewpoint: 15.0°C (59°F) [RH = 65%]
Pressure (altimeter): 30.06 inches Hg (1018.0 mb)
Winds: from the W (280 degrees) at 12 MPH (10 knots; 5.2 m/s)
Visibility: 6 or more miles (10+ km)
Ceiling: 4200 feet AGL
Clouds: few clouds at 2900 feet AGL
overcast cloud deck at 4200 feet AGL
Weather: no significant weather observed at this time

Forecast for: EDVE (BRAUNSCHWEIG , DE)
Text: TAF EDVE 201100Z 2012/2021 27010G20KT 9999 SCT020 BKN030
Forecast period: 1200 to 1700 UTC 20 August 2018
Forecast type: FROM: standard forecast or significant change
Winds: from the W (270 degrees) at 12 MPH (10 knots; 5.2 m/s)
gusting to 23 MPH (20 knots; 10.4 m/s)
Visibility: 6 or more miles (10+ km)
Ceiling: 3000 feet AGL
Clouds: scattered clouds at 2000 feet AGL
broken clouds at 3000 feet AGL
Weather: no significant weather forecast for this period
Text: BECMG 2017/2019 28005KT
Forecast period: 1700 to 2100 UTC 20 August 2018
Forecast type: BECOMING: Conditions expected to become as follows by 1900 UTC 20 August 2018
Winds: from the W (280 degrees) at 6 MPH (5 knots; 2.6 m/s)
Visibility: 6 or more miles (10+ km)
Ceiling: 3000 feet AGL
Clouds: scattered clouds at 2000 feet AGL
broken clouds at 3000 feet AGL
Weather: no significant weather forecast for this period

 AIRPORT MAP

 RUNWAY INFORMATION
Runway 08 Runway length 7546 ft Runway width 148 ft
Runway elevation 273 ft Runway displaced threshold 0 ft Runway heading 85
Runway 26 Runway length 7546 ft Runway width 148 ft
Runway elevation 291 ft Runway displaced threshold 591 ft Runway heading 265
Runway 08R Runway length 2953 ft Runway width 98 ft
Runway elevation 0 ft Runway displaced threshold 0 ft Runway heading 85
Runway 26L Runway length 2953 ft Runway width 98 ft
Runway elevation 0 ft Runway displaced threshold 0 ft Runway heading 265

 AIRPORT FREQUENCIES
Type ACC Name BREMEN RAD Frequency 131.325 MHZ
Type AFIS Name BREMEN INF Frequency 119.825 MHZ
Type INFO Name INFO Frequency 120.05 MHZ
Type TWR Name TWR Frequency 120.05 MHZ

 AIRPORT NEAR NAVIGATION AIDS
Type NDB Name Braunschweig Frequency 427 KHZ



Powered by Virtual Airlines Manager [v2.6.2]